Time;durP1;ratioP1;P1;durP2;ratioP2;P2;SDS_P1;SDS_P2;PMS_P1;PMS_P2;Temp;Humidity;BMP_temperature;BMP_pressure;BME280_temperature;BME280_humidity;BME280_pressure;Samples;Min_cycle;Max_cycle;Signal;HPM_P1;HPM_P2
2023/04/25 00:01:57;;;;;;;9.32;4.00;;;11.80;82.10;;;;;;5074874;28;20052;-85
2023/04/25 00:04:25;;;;;;;9.20;4.18;;;11.80;82.00;;;;;;5078681;28;20139;-85
2023/04/25 00:06:54;;;;;;;8.80;3.63;;;11.80;81.90;;;;;;5112105;28;20142;-85
2023/04/25 00:09:21;;;;;;;7.75;3.30;;;11.80;81.80;;;;;;5111966;28;20520;-85
2023/04/25 00:11:49;;;;;;;10.25;4.88;;;11.80;81.80;;;;;;5095159;28;20067;-84
2023/04/25 00:14:16;;;;;;;10.52;4.63;;;11.80;81.90;;;;;;5094937;28;20449;-85
2023/04/25 00:16:44;;;;;;;11.00;5.25;;;11.70;81.90;;;;;;5094957;28;20048;-85
2023/04/25 00:19:11;;;;;;;10.40;4.83;;;11.70;82.00;;;;;;5095096;28;20036;-85
2023/04/25 00:21:40;;;;;;;10.75;5.35;;;11.60;82.10;;;;;;5094984;28;20101;-86
2023/04/25 00:24:07;;;;;;;9.95;5.05;;;11.50;82.20;;;;;;5094885;28;20543;-85
2023/04/25 00:26:35;;;;;;;10.68;6.03;;;11.50;82.30;;;;;;5094627;28;20044;-85
2023/04/25 00:29:03;;;;;;;13.05;5.75;;;11.50;82.40;;;;;;5094762;28;20032;-85
2023/04/25 00:31:30;;;;;;;12.20;5.77;;;11.50;82.60;;;;;;5094582;28;20055;-85
2023/04/25 00:33:57;;;;;;;10.88;5.50;;;11.50;82.40;;;;;;5094416;28;20040;-85
2023/04/25 00:36:25;;;;;;;10.95;5.47;;;11.50;82.20;;;;;;5094797;28;20048;-85
2023/04/25 00:38:54;;;;;;;10.85;5.75;;;11.60;82.10;;;;;;5111534;28;20578;-85
2023/04/25 00:41:21;;;;;;;12.88;5.78;;;11.60;82.00;;;;;;5111708;28;20048;-85
2023/04/25 00:43:49;;;;;;;12.37;6.33;;;11.60;82.00;;;;;;5094351;28;20055;-85
2023/04/25 00:46:16;;;;;;;11.25;5.93;;;11.60;81.90;;;;;;5093958;28;20505;-85
2023/04/25 00:48:44;;;;;;;12.15;5.97;;;11.60;82.00;;;;;;5094188;28;20043;-85
2023/04/25 00:51:16;;;;;;;11.90;6.35;;;11.70;81.90;;;;;;5092124;28;20036;-85
2023/04/25 00:53:44;;;;;;;12.27;6.28;;;11.50;81.90;;;;;;5094329;28;20097;-85
2023/04/25 00:56:12;;;;;;;12.40;5.87;;;11.50;81.90;;;;;;5094360;28;20052;-85
2023/04/25 00:58:41;;;;;;;13.27;6.05;;;11.40;82.20;;;;;;5094249;28;20501;-85
2023/04/25 01:01:10;;;;;;;12.57;6.65;;;11.40;82.30;;;;;;5110962;28;20063;-85
2023/04/25 01:03:42;;;;;;;10.82;5.95;;;11.50;82.30;;;;;;5093849;28;20056;-85
2023/04/25 01:06:10;;;;;;;14.38;6.80;;;11.40;82.30;;;;;;5110582;28;20063;-85
2023/04/25 01:08:39;;;;;;;14.07;6.10;;;11.40;82.20;;;;;;5094050;28;20052;-85
2023/04/25 01:11:06;;;;;;;10.98;5.22;;;11.30;82.40;;;;;;5093737;28;20044;-85
2023/04/25 01:13:34;;;;;;;13.32;6.13;;;11.30;82.50;;;;;;5093855;28;20068;-85
2023/04/25 01:16:02;;;;;;;12.75;6.15;;;11.30;82.40;;;;;;5093475;28;20042;-85
2023/04/25 01:18:29;;;;;;;13.25;6.85;;;11.30;82.80;;;;;;5093693;28;20093;-85
2023/04/25 01:21:06;;;;;;;11.50;6.03;;;11.20;82.80;;;;;;5093712;28;20127;-85
2023/04/25 01:23:34;;;;;;;11.85;6.07;;;11.10;83.00;;;;;;5093565;28;20065;-85
2023/04/25 01:26:01;;;;;;;11.25;5.60;;;11.10;82.90;;;;;;5110511;28;20043;-85
2023/04/25 01:28:28;;;;;;;11.10;5.15;;;11.00;83.00;;;;;;5093391;28;20156;-85
2023/04/25 01:30:56;;;;;;;12.35;5.90;;;11.00;83.30;;;;;;5093566;28;20122;-85
2023/04/25 01:33:24;;;;;;;13.07;5.90;;;11.00;83.10;;;;;;5110193;28;20036;-84
2023/04/25 01:35:51;;;;;;;12.73;6.05;;;11.00;83.10;;;;;;5093214;28;20051;-85
2023/04/25 01:38:19;;;;;;;11.70;6.28;;;11.10;82.80;;;;;;5093223;28;20044;-84
2023/04/25 01:40:47;;;;;;;10.88;5.40;;;11.10;82.80;;;;;;5092997;28;20228;-85
2023/04/25 01:43:14;;;;;;;9.98;5.10;;;11.20;82.30;;;;;;5110001;28;20047;-85
2023/04/25 01:45:44;;;;;;;12.10;5.20;;;11.20;82.00;;;;;;5092859;28;20074;-85
2023/04/25 01:48:14;;;;;;;9.95;4.90;;;11.20;81.60;;;;;;5109488;28;20059;-84
2023/04/25 01:50:43;;;;;;;11.35;5.10;;;11.10;81.50;;;;;;5092640;28;20089;-85
2023/04/25 01:53:13;;;;;;;10.77;5.13;;;11.10;81.50;;;;;;5092359;28;20479;-85
2023/04/25 01:55:42;;;;;;;11.18;5.18;;;11.10;81.70;;;;;;5092715;28;20074;-85
2023/04/25 01:58:13;;;;;;;8.97;4.80;;;11.00;81.10;;;;;;5092690;28;20043;-86
2023/04/25 02:01:12;;;;;;;10.07;5.18;;;11.00;81.40;;;;;;5083022;28;20052;-86
2023/04/25 02:03:45;;;;;;;10.95;5.30;;;11.00;81.80;;;;;;5092633;28;20386;-85
2023/04/25 02:06:25;;;;;;;11.98;5.45;;;10.90;82.40;;;;;;5092450;28;20056;-84
2023/04/25 02:08:55;;;;;;;9.77;4.78;;;10.80;82.90;;;;;;5109709;28;20043;-85
2023/04/25 02:11:22;;;;;;;9.23;4.13;;;10.70;82.50;;;;;;5092630;28;20398;-85
2023/04/25 02:14:21;;;;;;;9.15;4.20;;;10.50;81.20;;;;;;5090136;28;20401;-85
2023/04/25 02:16:59;;;;;;;9.00;4.10;;;10.40;80.60;;;;;;5092675;28;20134;-85
2023/04/25 02:19:26;;;;;;;8.55;3.95;;;10.30;81.40;;;;;;5092369;28;20130;-85
2023/04/25 02:21:53;;;;;;;8.80;4.22;;;10.40;80.70;;;;;;5092546;28;20043;-85
2023/04/25 02:24:20;;;;;;;8.30;3.77;;;10.40;80.80;;;;;;5092574;28;20543;-84
2023/04/25 02:26:49;;;;;;;8.38;4.20;;;10.50;80.90;;;;;;5092472;28;20040;-85
2023/04/25 02:29:16;;;;;;;8.10;3.90;;;10.50;80.80;;;;;;5109497;28;20043;-85
2023/04/25 02:31:43;;;;;;;6.90;3.70;;;10.40;80.70;;;;;;5092214;28;20044;-85
2023/04/25 02:34:10;;;;;;;9.25;4.15;;;10.50;80.80;;;;;;5092248;28;20044;-85
2023/04/25 02:36:38;;;;;;;9.17;4.10;;;10.50;80.40;;;;;;5092109;28;20040;-85
2023/04/25 02:39:05;;;;;;;11.50;4.95;;;10.50;80.60;;;;;;5091947;28;20492;-85
2023/04/25 02:41:32;;;;;;;9.52;4.72;;;10.40;80.40;;;;;;5092067;28;20052;-85
2023/04/25 02:43:59;;;;;;;8.98;3.70;;;10.40;80.90;;;;;;5092136;28;20048;-85
2023/04/25 02:46:26;;;;;;;8.55;4.03;;;10.50;81.00;;;;;;5092192;28;20131;-85
2023/04/25 02:49:05;;;;;;;9.90;4.87;;;10.50;80.70;;;;;;5077743;28;20041;-86
2023/04/25 02:51:34;;;;;;;9.48;3.95;;;10.50;80.80;;;;;;5083444;28;20036;-85
2023/04/25 02:54:01;;;;;;;8.73;4.47;;;10.50;80.80;;;;;;5090271;28;20378;-85
2023/04/25 02:56:29;;;;;;;10.38;4.65;;;10.50;80.80;;;;;;5091920;28;21319;-85
2023/04/25 02:58:56;;;;;;;10.88;4.70;;;10.50;80.70;;;;;;5091654;28;20039;-85
2023/04/25 03:01:23;;;;;;;9.80;4.57;;;10.50;81.10;;;;;;5091593;28;20409;-85
2023/04/25 03:03:50;;;;;;;9.60;5.03;;;10.50;81.00;;;;;;5091960;28;20039;-85
2023/04/25 03:06:18;;;;;;;10.63;5.68;;;10.60;81.10;;;;;;5091806;28;20074;-85
2023/04/25 03:08:45;;;;;;;10.10;5.22;;;10.70;81.20;;;;;;5091933;28;20040;-85
2023/04/25 03:11:12;;;;;;;10.85;5.53;;;10.70;81.20;;;;;;5091845;28;20040;-85
2023/04/25 03:13:41;;;;;;;10.03;5.07;;;10.80;81.00;;;;;;5091709;28;20501;-85
2023/04/25 03:16:09;;;;;;;8.13;4.00;;;10.80;80.80;;;;;;5072050;28;20499;-85
2023/04/25 03:18:36;;;;;;;8.07;4.00;;;10.60;78.30;;;;;;5089416;28;20564;-85
2023/04/25 03:21:03;;;;;;;9.52;3.88;;;10.50;78.60;;;;;;5091628;28;20040;-85
2023/04/25 03:23:31;;;;;;;7.72;3.75;;;10.50;78.90;;;;;;5091886;28;20071;-86
2023/04/25 03:25:58;;;;;;;8.83;3.63;;;10.40;78.30;;;;;;5091764;28;20443;-86
2023/04/25 03:28:25;;;;;;;8.68;4.07;;;10.30;79.20;;;;;;5112867;28;20093;-86
2023/04/25 03:30:53;;;;;;;8.75;4.13;;;10.20;78.90;;;;;;5096060;28;20420;-86
2023/04/25 03:33:21;;;;;;;8.52;3.78;;;10.10;78.90;;;;;;5095825;28;20397;-85
2023/04/25 03:35:50;;;;;;;9.00;3.90;;;10.10;79.40;;;;;;5096199;28;20493;-86
2023/04/25 03:38:17;;;;;;;9.33;4.13;;;10.00;79.60;;;;;;5097530;28;20040;-86
2023/04/25 03:40:45;;;;;;;10.25;5.07;;;10.20;79.80;;;;;;5095696;28;20408;-86
2023/04/25 03:43:30;;;;;;;9.35;4.70;;;10.20;79.90;;;;;;5110051;28;20075;-85
2023/04/25 03:46:03;;;;;;;9.55;4.13;;;10.30;79.80;;;;;;5095544;28;20048;-86
2023/04/25 03:48:30;;;;;;;11.85;4.78;;;10.30;80.10;;;;;;5095420;28;20085;-85
2023/04/25 03:50:58;;;;;;;9.90;4.53;;;10.30;80.30;;;;;;5095618;28;20036;-86
2023/04/25 03:53:25;;;;;;;9.20;4.60;;;10.40;80.50;;;;;;5095464;28;20052;-86
2023/04/25 03:56:16;;;;;;;10.65;4.70;;;10.40;80.30;;;;;;5051393;28;20410;-85
2023/04/25 03:58:45;;;;;;;8.82;4.45;;;10.50;80.00;;;;;;5075049;28;20050;-86
2023/04/25 04:01:14;;;;;;;10.05;5.35;;;10.50;79.70;;;;;;5079056;28;20575;-85
2023/04/25 04:03:41;;;;;;;10.23;5.57;;;10.50;79.80;;;;;;5095108;28;20139;-86
2023/04/25 04:06:09;;;;;;;10.45;4.95;;;10.60;79.80;;;;;;5095074;28;20060;-86
2023/04/25 04:08:39;;;;;;;9.80;6.00;;;10.60;79.80;;;;;;5095095;28;20504;-86
2023/04/25 04:11:08;;;;;;;10.90;5.40;;;10.60;79.90;;;;;;5095400;28;20485;-85
2023/04/25 04:13:35;;;;;;;10.75;5.82;;;10.60;79.50;;;;;;5095167;28;20047;-86
2023/04/25 04:16:04;;;;;;;11.60;5.83;;;10.70;79.50;;;;;;5094862;28;20485;-85
2023/04/25 04:18:33;;;;;;;10.82;5.95;;;10.60;79.70;;;;;;5095031;28;20098;-86
2023/04/25 04:21:01;;;;;;;11.75;5.80;;;10.60;79.80;;;;;;5095106;28;20048;-86
2023/04/25 04:23:31;;;;;;;11.50;5.22;;;10.70;79.90;;;;;;5095076;28;20052;-86
2023/04/25 04:25:59;;;;;;;10.50;4.85;;;10.70;79.40;;;;;;5094891;28;20071;-86
2023/04/25 04:28:45;;;;;;;9.87;5.30;;;10.60;79.30;;;;;;5109544;28;20051;-86
2023/04/25 04:31:22;;;;;;;8.57;4.70;;;10.60;79.80;;;;;;5094851;28;20040;-86
2023/04/25 04:33:50;;;;;;;10.25;5.47;;;10.60;79.60;;;;;;5094651;28;20546;-85
2023/04/25 04:36:22;;;;;;;9.43;5.00;;;10.60;79.90;;;;;;5094660;28;20032;-86
2023/04/25 04:38:50;;;;;;;9.60;5.05;;;10.60;79.60;;;;;;5094082;28;20039;-86
2023/04/25 04:41:28;;;;;;;10.17;5.50;;;10.50;79.70;;;;;;5094770;28;20074;-85
2023/04/25 04:44:15;;;;;;;11.10;5.57;;;10.50;79.40;;;;;;5094671;28;20044;-85
2023/04/25 04:46:50;;;;;;;9.48;5.20;;;10.60;79.40;;;;;;5094173;28;20056;-85
2023/04/25 04:49:29;;;;;;;9.27;4.93;;;10.50;78.70;;;;;;5109779;28;20543;-86
2023/04/25 04:52:20;;;;;;;17.70;7.97;;;10.50;78.10;;;;;;5091482;28;20405;-85
2023/04/25 04:55:08;;;;;;;10.33;5.40;;;10.40;78.30;;;;;;5101432;28;20563;-85
2023/04/25 04:57:52;;;;;;;11.05;5.53;;;10.40;78.90;;;;;;5094435;28;20066;-86
2023/04/25 05:00:30;;;;;;;11.00;5.53;;;10.50;79.20;;;;;;5094339;28;20068;-86
2023/04/25 05:03:12;;;;;;;11.20;5.25;;;10.50;79.10;;;;;;5094145;28;20040;-84
2023/04/25 05:05:49;;;;;;;9.80;5.07;;;10.50;78.80;;;;;;5093802;28;20576;-86
2023/04/25 05:08:31;;;;;;;10.47;4.90;;;10.50;77.60;;;;;;5090805;28;20041;-86
2023/04/25 05:11:16;;;;;;;10.05;5.00;;;10.50;77.60;;;;;;5088882;28;20055;-85
2023/04/25 05:13:55;;;;;;;10.73;5.55;;;10.50;77.40;;;;;;5093879;28;20468;-85
2023/04/25 05:16:45;;;;;;;8.30;4.28;;;10.50;78.00;;;;;;5107905;28;20040;-85
2023/04/25 05:19:41;;;;;;;10.70;4.95;;;10.60;77.50;;;;;;5093803;28;20123;-86
2023/04/25 05:22:30;;;;;;;10.07;4.50;;;10.60;77.10;;;;;;5094493;28;20493;-85
2023/04/25 05:25:15;;;;;;;8.60;4.50;;;10.60;77.80;;;;;;5108467;28;20128;-85
2023/04/25 05:27:45;;;;;;;9.57;4.60;;;10.60;77.60;;;;;;5110643;28;20048;-86
2023/04/25 05:30:35;;;;;;;9.35;4.53;;;10.70;76.90;;;;;;5069839;28;20048;-86
2023/04/25 05:33:16;;;;;;;10.82;5.13;;;10.70;77.40;;;;;;5093420;28;20052;-86
2023/04/25 05:35:44;;;;;;;9.13;4.63;;;10.70;78.10;;;;;;5093582;28;20047;-85
2023/04/25 05:38:12;;;;;;;8.77;4.35;;;10.70;78.30;;;;;;5093593;28;20040;-85
2023/04/25 05:40:57;;;;;;;8.77;4.80;;;10.70;78.40;;;;;;5108731;28;20062;-86
2023/04/25 05:43:38;;;;;;;9.80;4.75;;;10.60;78.40;;;;;;5093579;28;20155;-85
2023/04/25 05:46:37;;;;;;;9.13;4.20;;;10.50;78.10;;;;;;5100805;28;20123;-85
2023/04/25 05:49:21;;;;;;;8.27;3.60;;;10.50;78.10;;;;;;5092653;28;20044;-85
2023/04/25 05:52:17;;;;;;;25.58;12.60;;;10.40;77.00;;;;;;5073306;28;20044;-86
2023/04/25 05:55:08;;;;;;;10.15;5.57;;;10.40;77.60;;;;;;5088612;28;20044;-85
2023/04/25 05:57:35;;;;;;;25.52;21.25;;;10.40;77.90;;;;;;5093355;28;20048;-86
2023/04/25 06:00:03;;;;;;;45.67;38.78;;;10.40;77.60;;;;;;5092938;28;20109;-86
2023/04/25 06:02:48;;;;;;;27.63;23.67;;;10.40;77.70;;;;;;5093504;28;20040;-85
2023/04/25 06:05:15;;;;;;;10.63;6.22;;;10.30;77.30;;;;;;5092879;28;20833;-85
2023/04/25 06:07:44;;;;;;;9.77;5.32;;;10.30;77.80;;;;;;5093190;28;20046;-86
2023/04/25 06:10:11;;;;;;;9.10;4.45;;;10.40;78.40;;;;;;5093089;28;20039;-85
2023/04/25 06:12:38;;;;;;;9.10;4.35;;;10.50;78.70;;;;;;5081811;28;20047;-85
2023/04/25 06:15:06;;;;;;;9.67;4.47;;;10.50;77.70;;;;;;5076051;28;20462;-86
2023/04/25 06:17:52;;;;;;;9.77;4.70;;;10.60;76.60;;;;;;5110098;28;20067;-86
2023/04/25 06:20:22;;;;;;;8.10;3.63;;;10.70;78.00;;;;;;5092878;28;20408;-85
2023/04/25 06:22:52;;;;;;;8.38;4.30;;;10.70;76.50;;;;;;5092731;28;20130;-86
2023/04/25 06:25:21;;;;;;;8.27;4.05;;;10.80;75.00;;;;;;5092770;28;20044;-86
2023/04/25 06:27:48;;;;;;;7.80;4.00;;;10.80;74.10;;;;;;5092595;28;20056;-86
2023/04/25 06:30:18;;;;;;;9.35;4.93;;;10.90;74.50;;;;;;5092670;28;20063;-86
2023/04/25 06:32:45;;;;;;;8.75;4.30;;;10.90;75.20;;;;;;5100854;28;20036;-86
2023/04/25 06:35:13;;;;;;;8.63;4.05;;;10.90;73.70;;;;;;5113078;28;20489;-85
2023/04/25 06:37:40;;;;;;;10.02;4.13;;;10.80;74.10;;;;;;5112945;28;20054;-86
2023/04/25 06:40:08;;;;;;;9.00;4.40;;;10.80;74.90;;;;;;5094799;28;20043;-85
2023/04/25 06:42:35;;;;;;;8.75;4.40;;;10.70;75.30;;;;;;5092610;28;20055;-86
2023/04/25 06:45:22;;;;;;;9.13;5.13;;;10.80;76.20;;;;;;5106821;28;20497;-86
2023/04/25 06:47:49;;;;;;;8.50;4.00;;;11.00;76.10;;;;;;5109187;28;20044;-86
2023/04/25 06:50:17;;;;;;;10.75;5.30;;;11.00;75.70;;;;;;5092590;28;20059;-85
2023/04/25 06:52:44;;;;;;;8.40;4.23;;;11.10;76.30;;;;;;5092353;28;20040;-86
2023/04/25 06:55:11;;;;;;;9.95;4.32;;;11.10;74.90;;;;;;5092300;28;20485;-86
2023/04/25 06:57:56;;;;;;;7.97;4.38;;;11.10;74.70;;;;;;5078138;28;20044;-86
2023/04/25 07:00:52;;;;;;;8.02;3.63;;;11.10;73.50;;;;;;5089161;28;20071;-85
2023/04/25 07:03:22;;;;;;;8.02;3.80;;;11.20;73.00;;;;;;5092129;28;20076;-86
2023/04/25 07:05:52;;;;;;;9.57;3.77;;;11.30;73.70;;;;;;5092145;28;20489;-86
2023/04/25 07:08:20;;;;;;;8.75;4.18;;;11.30;71.40;;;;;;5092042;28;20040;-85
2023/04/25 07:10:47;;;;;;;9.55;3.92;;;11.30;71.80;;;;;;5092222;28;20055;-86
2023/04/25 07:13:16;;;;;;;7.88;3.38;;;11.40;72.10;;;;;;5091992;28;20047;-86
2023/04/25 07:15:44;;;;;;;8.50;3.70;;;11.40;71.70;;;;;;5092018;28;20040;-86
2023/04/25 07:18:12;;;;;;;8.33;3.77;;;11.50;71.20;;;;;;5109185;28;20134;-85
2023/04/25 07:20:39;;;;;;;11.00;3.45;;;11.30;70.40;;;;;;5092128;28;20074;-85
2023/04/25 07:23:06;;;;;;;7.53;3.53;;;11.20;69.10;;;;;;5091844;28;20040;-85
2023/04/25 07:25:33;;;;;;;7.35;3.70;;;11.00;70.40;;;;;;5091882;28;20044;-86
2023/04/25 07:28:02;;;;;;;7.93;3.60;;;11.00;71.40;;;;;;5091991;28;20048;-85
2023/04/25 07:30:29;;;;;;;8.47;3.63;;;11.10;69.90;;;;;;5091836;28;20125;-85
2023/04/25 07:32:56;;;;;;;9.35;4.20;;;11.10;69.90;;;;;;5091794;28;20043;-85
2023/04/25 07:35:26;;;;;;;8.73;4.20;;;11.20;71.80;;;;;;5091811;28;20109;-86
2023/04/25 07:37:53;;;;;;;9.30;3.70;;;11.40;72.20;;;;;;5091639;28;20044;-86
2023/04/25 07:40:20;;;;;;;9.68;3.92;;;11.40;70.50;;;;;;5091811;28;20052;-85
2023/04/25 07:42:54;;;;;;;9.67;3.50;;;11.50;69.90;;;;;;5091590;28;20134;-85
2023/04/25 07:45:32;;;;;;;7.60;3.22;;;11.50;69.20;;;;;;5091820;28;20055;-85
2023/04/25 07:48:00;;;;;;;8.57;3.33;;;11.50;68.30;;;;;;5091396;28;20044;-85
2023/04/25 07:50:29;;;;;;;9.43;3.38;;;11.50;68.70;;;;;;5091928;28;20071;-85
2023/04/25 07:52:56;;;;;;;9.30;3.38;;;11.50;66.90;;;;;;5108848;28;20064;-86
2023/04/25 07:55:30;;;;;;;6.70;2.90;;;11.50;67.10;;;;;;5088440;28;20043;-86
2023/04/25 07:58:11;;;;;;;8.38;3.47;;;11.50;67.40;;;;;;5086461;28;20036;-85
2023/04/25 08:00:41;;;;;;;8.40;3.30;;;11.50;67.80;;;;;;5108948;28;20097;-86
2023/04/25 08:03:28;;;;;;;9.38;3.65;;;11.50;65.90;;;;;;5095324;28;20044;-86
2023/04/25 08:05:57;;;;;;;9.65;4.13;;;11.60;66.50;;;;;;5091469;28;20056;-85
2023/04/25 08:08:27;;;;;;;7.93;3.60;;;11.80;67.20;;;;;;5091504;28;20131;-86
2023/04/25 08:10:55;;;;;;;10.48;7.22;;;11.70;68.10;;;;;;5091509;28;20040;-86
2023/04/25 08:13:22;;;;;;;11.63;5.80;;;11.70;67.10;;;;;;5093611;28;20036;-86
2023/04/25 08:15:49;;;;;;;10.15;5.43;;;11.80;68.10;;;;;;5095336;28;20511;-86
2023/04/25 08:18:16;;;;;;;8.23;3.58;;;11.90;67.80;;;;;;5104369;28;20404;-85
2023/04/25 08:20:45;;;;;;;8.50;3.83;;;11.80;65.50;;;;;;5105443;28;20420;-85
2023/04/25 08:23:14;;;;;;;9.90;3.55;;;11.80;65.70;;;;;;5094996;28;20035;-85
2023/04/25 08:25:51;;;;;;;7.78;3.65;;;11.80;64.90;;;;;;5095292;28;20131;-85
2023/04/25 08:28:23;;;;;;;9.23;3.85;;;11.90;65.40;;;;;;5094870;28;20490;-85
2023/04/25 08:30:50;;;;;;;8.02;3.63;;;12.00;65.20;;;;;;5094696;28;20048;-85
2023/04/25 08:33:18;;;;;;;7.23;3.40;;;12.00;65.10;;;;;;5094931;28;20040;-85
2023/04/25 08:36:10;;;;;;;9.23;3.40;;;12.10;62.80;;;;;;5094821;28;20044;-86
2023/04/25 08:38:37;;;;;;;8.40;3.40;;;12.10;61.50;;;;;;5094593;28;20050;-85
2023/04/25 08:41:08;;;;;;;7.72;3.70;;;12.10;61.80;;;;;;5094433;28;20050;-85
2023/04/25 08:43:35;;;;;;;9.32;3.38;;;12.00;60.40;;;;;;5094676;28;20052;-86
2023/04/25 08:46:03;;;;;;;7.80;2.73;;;12.00;61.70;;;;;;5111486;28;20040;-85
2023/04/25 08:48:40;;;;;;;8.10;5.35;;;12.10;63.10;;;;;;5094429;28;20048;-86
2023/04/25 08:51:09;;;;;;;7.95;3.60;;;12.20;62.90;;;;;;5094122;28;20046;-85
2023/04/25 08:53:42;;;;;;;7.10;3.13;;;12.30;62.40;;;;;;5094307;28;20040;-85
2023/04/25 08:56:13;;;;;;;7.32;3.20;;;12.40;60.50;;;;;;5094265;28;20039;-85
2023/04/25 08:58:40;;;;;;;7.37;3.10;;;12.30;59.60;;;;;;5094342;28;20101;-85
2023/04/25 09:01:07;;;;;;;6.82;3.25;;;12.20;61.10;;;;;;5094307;28;20040;-86
2023/04/25 09:03:44;;;;;;;9.82;2.92;;;12.40;60.90;;;;;;5094187;28;20044;-85
2023/04/25 09:06:11;;;;;;;6.93;2.78;;;12.50;58.60;;;;;;5093947;28;20139;-85
2023/04/25 09:08:40;;;;;;;6.88;2.58;;;12.30;57.80;;;;;;5093905;28;20048;-85
2023/04/25 09:11:07;;;;;;;7.03;2.70;;;12.30;59.60;;;;;;5111152;28;20067;-85
2023/04/25 09:13:34;;;;;;;6.38;2.60;;;12.30;59.40;;;;;;5110809;28;20040;-85
2023/04/25 09:16:21;;;;;;;6.82;2.70;;;12.30;58.30;;;;;;5107780;28;20036;-85
2023/04/25 09:19:28;;;;;;;5.20;1.80;;;12.30;58.00;;;;;;5099445;28;20052;-85
2023/04/25 09:22:18;;;;;;;7.63;2.33;;;12.30;55.60;;;;;;5093732;28;20237;-85
2023/04/25 09:24:45;;;;;;;5.83;2.40;;;12.20;57.40;;;;;;5093505;28;20097;-85
2023/04/25 09:27:19;;;;;;;6.88;2.35;;;12.10;55.90;;;;;;5093594;28;20045;-86
2023/04/25 09:30:01;;;;;;;7.53;2.42;;;12.10;58.10;;;;;;5093598;28;20040;-85
2023/04/25 09:32:48;;;;;;;6.45;2.50;;;12.20;59.00;;;;;;5107537;28;20523;-85
2023/04/25 09:35:26;;;;;;;6.10;2.20;;;12.30;56.70;;;;;;5093358;28;20040;-85
2023/04/25 09:37:55;;;;;;;7.90;2.80;;;12.30;58.00;;;;;;5093201;28;20040;-85
2023/04/25 09:40:51;;;;;;;4.88;1.75;;;12.40;57.70;;;;;;5083816;28;20048;-85
2023/04/25 09:43:29;;;;;;;6.85;1.73;;;12.40;55.80;;;;;;5093168;28;20039;-85
2023/04/25 09:45:58;;;;;;;5.45;1.80;;;12.40;55.10;;;;;;5110239;28;20040;-85
2023/04/25 09:48:28;;;;;;;5.38;1.77;;;12.50;55.20;;;;;;5093125;28;20050;-85
2023/04/25 09:51:10;;;;;;;5.17;2.37;;;12.40;55.30;;;;;;5093420;28;20097;-85
2023/04/25 09:53:39;;;;;;;4.18;1.60;;;12.50;54.90;;;;;;5093046;28;20097;-86
2023/04/25 09:56:16;;;;;;;7.22;1.80;;;12.50;54.60;;;;;;5093010;28;20492;-85
2023/04/25 09:58:43;;;;;;;7.22;2.83;;;12.50;54.70;;;;;;5093319;28;20047;-85
2023/04/25 10:01:10;;;;;;;8.18;2.35;;;12.60;56.50;;;;;;5093242;28;20552;-85
2023/04/25 10:03:55;;;;;;;6.00;2.10;;;12.70;55.20;;;;;;5092960;28;20047;-85
2023/04/25 10:06:37;;;;;;;7.30;2.17;;;12.80;55.20;;;;;;5109746;28;20078;-85
2023/04/25 10:09:07;;;;;;;7.10;2.10;;;12.80;54.80;;;;;;5109747;28;20044;-85
2023/04/25 10:11:36;;;;;;;6.32;2.00;;;12.60;54.20;;;;;;5092622;28;20044;-86
2023/04/25 10:14:05;;;;;;;8.63;2.92;;;12.60;55.10;;;;;;5092724;28;20043;-85
2023/04/25 10:16:33;;;;;;;5.97;2.07;;;12.70;55.90;;;;;;5092543;28;20040;-85
2023/04/25 10:19:00;;;;;;;6.20;2.05;;;12.80;55.10;;;;;;5092339;28;20098;-85
2023/04/25 10:21:30;;;;;;;7.80;2.30;;;12.80;54.60;;;;;;5092365;28;20048;-86
2023/04/25 10:23:57;;;;;;;7.70;2.60;;;12.70;54.80;;;;;;5092433;28;20048;-85
2023/04/25 10:26:25;;;;;;;8.38;3.47;;;12.80;55.90;;;;;;5092346;28;20135;-85
2023/04/25 10:28:57;;;;;;;6.33;2.43;;;12.90;57.90;;;;;;5092179;28;20048;-85
2023/04/25 10:31:24;;;;;;;6.07;2.45;;;12.90;55.40;;;;;;5082409;28;20405;-85
2023/04/25 10:33:52;;;;;;;8.80;2.70;;;12.80;55.60;;;;;;5092243;28;20047;-86
2023/04/25 10:36:22;;;;;;;7.10;2.80;;;13.00;56.10;;;;;;5092014;28;20559;-85
2023/04/25 10:38:50;;;;;;;6.72;2.42;;;13.00;56.30;;;;;;5092252;28;20516;-85
2023/04/25 10:41:19;;;;;;;8.53;2.77;;;13.00;55.30;;;;;;5092391;28;20497;-85
2023/04/25 10:43:47;;;;;;;6.93;2.40;;;13.00;55.20;;;;;;5092245;28;20047;-85
2023/04/25 10:46:19;;;;;;;9.40;2.58;;;13.00;55.40;;;;;;5092233;28;20058;-86
2023/04/25 10:49:01;;;;;;;9.10;3.22;;;12.90;54.70;;;;;;5093479;28;20131;-85
2023/04/25 10:51:34;;;;;;;6.28;2.70;;;12.80;54.20;;;;;;5109061;28;20128;-86
2023/04/25 10:54:24;;;;;;;7.27;2.67;;;12.70;54.50;;;;;;5109050;28;20088;-85
2023/04/25 10:56:53;;;;;;;7.85;2.88;;;12.80;56.50;;;;;;5092121;28;20142;-85
2023/04/25 10:59:24;;;;;;;8.00;3.65;;;12.90;54.50;;;;;;5108854;28;20081;-86
2023/04/25 11:01:54;;;;;;;7.72;2.45;;;12.80;55.00;;;;;;5092143;28;20078;-85
2023/04/25 11:04:33;;;;;;;10.02;3.03;;;12.70;54.60;;;;;;5108710;28;20071;-85
2023/04/25 11:07:10;;;;;;;9.33;2.47;;;12.60;53.60;;;;;;5109046;28;20040;-85
2023/04/25 11:09:41;;;;;;;7.07;2.58;;;12.60;55.10;;;;;;5108660;28;20043;-85
2023/04/25 11:12:09;;;;;;;6.07;2.30;;;12.60;54.50;;;;;;5092022;28;20052;-86
2023/04/25 11:14:36;;;;;;;7.78;2.13;;;12.60;54.20;;;;;;5092031;28;20040;-85
2023/04/25 11:17:05;;;;;;;5.95;2.50;;;12.70;54.80;;;;;;5091824;28;20044;-86
2023/04/25 11:19:32;;;;;;;6.77;2.43;;;12.80;53.30;;;;;;5091983;28;20052;-86
2023/04/25 11:22:01;;;;;;;7.22;2.50;;;12.70;53.70;;;;;;5091878;28;20134;-85
2023/04/25 11:24:29;;;;;;;5.75;2.30;;;12.70;54.00;;;;;;5091532;28;20051;-85
2023/04/25 11:27:24;;;;;;;6.40;2.22;;;12.70;53.70;;;;;;5108791;28;20044;-86
2023/04/25 11:29:51;;;;;;;5.82;2.30;;;12.80;54.10;;;;;;5090397;28;20394;-86
2023/04/25 11:32:19;;;;;;;6.37;2.27;;;13.00;54.30;;;;;;5091657;28;20485;-85
2023/04/25 11:34:47;;;;;;;6.22;1.75;;;12.90;53.50;;;;;;5091751;28;20055;-86
2023/04/25 11:37:14;;;;;;;6.93;2.72;;;13.00;52.90;;;;;;5091717;28;20127;-85
2023/04/25 11:39:48;;;;;;;5.80;2.25;;;12.90;53.80;;;;;;5091774;28;20454;-86
2023/04/25 11:42:15;;;;;;;6.47;2.15;;;12.90;53.50;;;;;;5091452;28;20059;-86
2023/04/25 11:44:42;;;;;;;5.37;2.20;;;12.80;52.40;;;;;;5091936;28;20044;-85
2023/04/25 11:47:09;;;;;;;7.50;2.38;;;12.70;53.40;;;;;;5075083;28;20036;-85
2023/04/25 11:49:36;;;;;;;8.57;2.65;;;12.70;53.50;;;;;;5112509;28;20450;-85
2023/04/25 11:52:07;;;;;;;7.80;2.58;;;12.80;53.50;;;;;;5112750;28;20063;-85
2023/04/25 11:54:37;;;;;;;7.82;2.90;;;12.70;53.90;;;;;;5095376;28;20060;-86
2023/04/25 11:57:04;;;;;;;10.53;2.57;;;12.80;54.50;;;;;;5095452;28;20040;-85
2023/04/25 11:59:31;;;;;;;5.90;2.17;;;12.60;54.30;;;;;;5095566;28;20112;-85
2023/04/25 12:02:01;;;;;;;7.03;2.45;;;12.70;53.00;;;;;;5095235;28;20558;-86
2023/04/25 12:04:30;;;;;;;6.65;2.10;;;12.60;53.50;;;;;;5095097;28;20136;-86
2023/04/25 12:07:00;;;;;;;6.20;2.72;;;12.70;52.70;;;;;;5095359;28;20405;-85
2023/04/25 12:09:35;;;;;;;6.00;2.30;;;12.60;53.70;;;;;;5112121;28;20382;-85
2023/04/25 12:12:03;;;;;;;7.82;2.33;;;12.60;54.50;;;;;;5095054;28;20094;-85
2023/04/25 12:14:33;;;;;;;6.20;2.47;;;12.50;53.90;;;;;;5095141;28;20044;-85
2023/04/25 12:17:02;;;;;;;10.23;2.58;;;12.50;53.50;;;;;;5105559;28;20044;-85
2023/04/25 12:19:35;;;;;;;6.90;2.33;;;12.50;54.70;;;;;;5095108;28;20040;-85
2023/04/25 12:22:11;;;;;;;8.43;3.00;;;12.50;54.30;;;;;;5094913;28;20053;-85
2023/04/25 12:24:38;;;;;;;7.50;2.78;;;12.70;56.40;;;;;;5095110;28;20043;-85
2023/04/25 12:27:07;;;;;;;7.60;2.80;;;12.70;53.80;;;;;;5094883;28;20098;-86
2023/04/25 12:29:35;;;;;;;8.65;3.05;;;12.80;54.20;;;;;;5094767;28;20118;-86
2023/04/25 12:32:15;;;;;;;7.95;3.35;;;12.90;54.80;;;;;;5111596;28;20040;-86
2023/04/25 12:34:43;;;;;;;11.10;3.80;;;13.00;54.60;;;;;;5094864;28;20044;-86
2023/04/25 12:37:14;;;;;;;8.90;3.10;;;13.00;53.10;;;;;;5094554;28;20505;-86
2023/04/25 12:39:41;;;;;;;7.57;3.00;;;13.10;54.70;;;;;;5094729;28;20527;-86
2023/04/25 12:42:11;;;;;;;9.43;3.40;;;13.00;53.70;;;;;;5094719;28;20040;-86
2023/04/25 12:44:39;;;;;;;8.13;2.78;;;13.00;54.70;;;;;;5094663;28;20101;-86
2023/04/25 12:47:06;;;;;;;10.10;3.33;;;13.00;53.70;;;;;;5094673;28;20075;-86
2023/04/25 12:49:34;;;;;;;8.68;3.50;;;13.10;54.10;;;;;;5094227;28;20089;-86
2023/04/25 12:52:01;;;;;;;8.07;3.00;;;13.10;54.40;;;;;;5094344;28;20130;-86
2023/04/25 12:54:28;;;;;;;10.43;3.42;;;13.40;54.60;;;;;;5094349;28;20040;-85
2023/04/25 12:56:56;;;;;;;7.60;3.33;;;13.40;52.60;;;;;;5094251;28;20097;-85
2023/04/25 12:59:23;;;;;;;6.63;2.67;;;13.50;54.30;;;;;;5093797;28;20051;-85
2023/04/25 13:01:50;;;;;;;7.35;3.08;;;13.50;53.00;;;;;;5094171;28;20048;-86
2023/04/25 13:04:17;;;;;;;11.07;3.60;;;13.70;55.40;;;;;;5094229;28;20055;-85
2023/04/25 13:06:44;;;;;;;7.35;3.53;;;13.80;52.20;;;;;;5093937;28;20048;-86